This is the latest recevied weather packets stored in our database for station/object VU3YEJ-WX. If no packets are shown the sender has not sent any weather packets the latest 10 day(s).
| Time | Temp. | Humidity | Pressure | Rain* | Wind** | Luminosity | Snow |
|---|---|---|---|---|---|---|---|
| 1787739644 | 27.22° C | 84% | 1011 hPa | - | - | - | - |
| 1787737844 | 27.78° C | 79% | 1011 hPa | - | - | - | - |
| 1787736047 | 28.89° C | 70% | 1012 hPa | - | - | - | - |
| 1787732445 | 28.89° C | 75% | 1012 hPa | - | - | - | - |
| 1787730644 | 27.78° C | 74% | 1013 hPa | - | - | - | - |
| 1787728844 | 27.22° C | 84% | 1013 hPa | - | - | - | - |
| 1787727044 | 27.78° C | 79% | 1013 hPa | - | - | - | - |
| 1787723444 | 27.22° C | 84% | 1013 hPa | - | - | - | - |
| 1787721644 | 26.11° C | 89% | 1014 hPa | - | - | - | - |
| 1787719844 | 23.89° C | 100% | 1014 hPa | - | - | - | - |
| 1787718044 | 23.89° C | 100% | 1014 hPa | - | - | - | - |
| 1787716244 | 22.78° C | 100% | 1014 hPa | - | - | - | - |
| 1787714444 | 22.78° C | 100% | 1014 hPa | - | - | - | - |
| 1787710844 | 22.78° C | 100% | 1013 hPa | - | - | - | - |
| 1787709044 | 22.22° C | 100% | 1013 hPa | - | - | - | - |
| 1787707244 | 22.22° C | 100% | 1012 hPa | - | - | - | - |
| 1787703644 | 22.22° C | 100% | 1012 hPa | - | - | - | - |
| 1787701844 | 22.22° C | 100% | 1012 hPa | - | - | - | - |
| 1787698244 | 22.22° C | 100% | 1012 hPa | - | - | - | - |
| 1787694644 | 22.78° C | 100% | 1012 hPa | - | - | - | - |
| 1787692844 | 22.22° C | 100% | 1012 hPa | - | - | - | - |
| 1787691044 | 22.22° C | 100% | 1012 hPa | - | - | - | - |
| 1787687444 | 22.78° C | 100% | 1013 hPa | - | - | - | - |
| 1787673044 | 23.89° C | 94% | 1013 hPa | - | - | - | - |
| 1787671245 | 23.89° C | 94% | 1012 hPa | - | - | - | - |
* Rain since midnight (hover to see other rain measurements)
** Current wind speed in m/s (hover to see current wind gust speed)